createdAt,value
2018-06-30T00:01:33.812Z,95.70
2018-06-30T00:04:01.515Z,95.80
2018-06-30T00:08:57.015Z,95.80
2018-06-30T00:11:24.920Z,95.80
2018-06-30T00:13:53.140Z,95.90
2018-06-30T00:16:20.854Z,95.80
2018-06-30T00:18:48.493Z,95.90
2018-06-30T00:21:16.241Z,95.80
2018-06-30T00:23:43.893Z,95.90
2018-06-30T00:26:12.436Z,95.90
2018-06-30T00:28:40.120Z,96.20
2018-06-30T00:31:08.066Z,96.40
2018-06-30T00:33:36.111Z,96.30
2018-06-30T00:36:03.934Z,96.50
2018-06-30T00:38:31.605Z,97.00
2018-06-30T00:40:59.262Z,97.00
2018-06-30T00:43:26.942Z,96.70
2018-06-30T00:45:54.618Z,96.60
2018-06-30T00:48:22.373Z,96.80
2018-06-30T00:50:50.078Z,96.50
2018-06-30T00:53:17.820Z,96.70
2018-06-30T00:55:45.455Z,96.60
2018-06-30T00:58:13.123Z,96.60
2018-06-30T01:04:26.458Z,96.60
2018-06-30T01:06:54.343Z,96.50
2018-06-30T01:09:22.024Z,96.90
2018-06-30T01:11:49.677Z,97.00
2018-06-30T01:14:17.368Z,96.70
2018-06-30T01:19:12.605Z,96.60
2018-06-30T01:24:08.365Z,96.60
2018-06-30T01:29:04.015Z,96.70
2018-06-30T01:31:31.696Z,97.10
2018-06-30T01:33:59.372Z,97.40
2018-06-30T01:36:27.036Z,97.00
2018-06-30T01:38:54.711Z,97.20
2018-06-30T01:48:45.022Z,97.10
2018-06-30T01:51:12.751Z,97.40
2018-06-30T01:53:40.515Z,97.40
2018-06-30T01:56:08.112Z,97.40
2018-06-30T01:58:35.766Z,97.60
2018-06-30T02:01:03.475Z,97.80
2018-06-30T02:03:31.181Z,97.50
2018-06-30T02:05:58.825Z,97.40
2018-06-30T02:08:26.583Z,97.00
2018-06-30T02:13:21.766Z,97.00
2018-06-30T02:15:49.396Z,97.00
2018-06-30T02:18:17.048Z,97.10
2018-06-30T02:20:44.711Z,96.90
2018-06-30T02:23:12.377Z,96.60
2018-06-30T02:33:02.621Z,97.80
2018-06-30T02:35:30.336Z,97.30
2018-06-30T02:37:58.003Z,97.40
2018-06-30T02:40:25.683Z,97.50
2018-06-30T02:42:53.360Z,97.50
2018-06-30T02:47:48.593Z,96.90
2018-06-30T02:50:16.265Z,96.60
2018-06-30T02:52:43.917Z,96.60
2018-06-30T02:55:11.611Z,97.00
2018-06-30T02:57:39.280Z,97.00
2018-06-30T03:00:07.111Z,97.00
2018-06-30T03:02:34.850Z,97.30
2018-06-30T03:05:02.630Z,97.00
2018-06-30T03:09:57.822Z,97.00
2018-06-30T03:15:03.928Z,97.20
2018-06-30T03:19:59.124Z,97.40
2018-06-30T03:22:26.758Z,96.90
2018-06-30T03:24:54.556Z,96.60
2018-06-30T03:27:22.232Z,97.10
2018-06-30T03:34:44.946Z,97.20
2018-06-30T03:37:12.544Z,97.30
2018-06-30T03:39:40.202Z,97.10
2018-06-30T03:42:07.836Z,97.40
2018-06-30T03:44:35.507Z,97.50
2018-06-30T03:47:03.156Z,97.30
2018-06-30T03:49:30.802Z,97.40
2018-06-30T03:54:25.968Z,97.60
2018-06-30T03:56:53.596Z,97.60
2018-06-30T03:59:21.271Z,97.30
2018-06-30T04:04:16.486Z,97.60
2018-06-30T04:06:44.193Z,97.40
2018-06-30T04:09:13.083Z,97.00
2018-06-30T04:11:40.858Z,97.20
2018-06-30T04:14:08.809Z,97.10
2018-06-30T04:21:37.113Z,97.50
2018-06-30T04:24:04.786Z,97.30
2018-06-30T04:26:32.441Z,97.40
2018-06-30T04:29:00.098Z,97.60
2018-06-30T04:31:27.772Z,97.50
2018-06-30T04:33:55.412Z,97.50
2018-06-30T04:36:23.098Z,97.50
2018-06-30T04:38:50.773Z,97.30
2018-06-30T04:43:45.951Z,97.60
2018-06-30T04:46:13.635Z,97.60
2018-06-30T04:48:41.281Z,97.80
2018-06-30T04:53:36.491Z,97.30
2018-06-30T04:56:04.178Z,97.30
2018-06-30T05:00:59.415Z,97.40
2018-06-30T05:03:27.148Z,97.30
2018-06-30T05:05:54.778Z,97.20
2018-06-30T05:08:22.473Z,97.40
2018-06-30T05:10:50.101Z,97.50
2018-06-30T05:18:12.928Z,97.80
2018-06-30T05:20:40.633Z,97.90
2018-06-30T05:23:08.258Z,98.00
2018-06-30T05:25:35.923Z,98.00
2018-06-30T05:28:03.796Z,98.00
2018-06-30T05:30:31.446Z,98.00
2018-06-30T05:32:59.138Z,98.00
2018-06-30T05:35:26.888Z,97.90
2018-06-30T05:37:54.676Z,97.80
2018-06-30T05:42:49.883Z,97.50
2018-06-30T05:45:17.549Z,97.30
2018-06-30T05:50:12.740Z,97.00
2018-06-30T05:52:40.423Z,96.80
2018-06-30T05:55:08.252Z,96.70
2018-06-30T05:57:35.938Z,96.50
2018-06-30T06:00:04.164Z,96.40
2018-06-30T06:04:59.376Z,96.60
2018-06-30T06:09:54.690Z,95.90
2018-06-30T06:12:22.343Z,95.10
2018-06-30T06:17:17.547Z,95.00
2018-06-30T06:19:45.847Z,95.00
2018-06-30T06:22:13.562Z,94.90
2018-06-30T06:24:41.203Z,94.60
2018-06-30T06:27:08.904Z,94.30
2018-06-30T06:29:36.557Z,94.20
2018-06-30T06:32:04.359Z,94.00
2018-06-30T06:34:32.014Z,93.30
2018-06-30T06:39:27.264Z,92.60
2018-06-30T06:41:54.922Z,92.30
2018-06-30T06:44:22.662Z,92.10
2018-06-30T06:49:17.873Z,91.50
2018-06-30T06:51:45.524Z,92.40
2018-06-30T06:54:13.228Z,91.10
2018-06-30T06:56:40.880Z,91.20
2018-06-30T07:01:36.298Z,90.10
2018-06-30T07:06:31.568Z,90.20
2018-06-30T07:08:59.233Z,87.10
2018-06-30T07:11:26.894Z,84.80
2018-06-30T07:13:54.894Z,85.50
2018-06-30T07:18:50.168Z,80.80
2018-06-30T07:21:17.823Z,80.10
2018-06-30T07:23:45.443Z,81.00
2018-06-30T07:26:13.170Z,80.00
2018-06-30T07:28:40.793Z,77.30
2018-06-30T07:31:08.614Z,78.90
2018-06-30T07:36:03.890Z,79.10
2018-06-30T07:38:31.593Z,79.00
2018-06-30T07:48:22.823Z,76.60
2018-06-30T07:50:50.433Z,72.80
2018-06-30T07:53:18.088Z,77.40
2018-06-30T07:55:45.795Z,74.60
2018-06-30T08:00:41.119Z,74.60
2018-06-30T08:03:08.828Z,72.00
2018-06-30T08:05:36.483Z,75.20
2018-06-30T08:08:04.199Z,72.90
2018-06-30T08:10:31.853Z,71.90
2018-06-30T08:12:59.540Z,73.60
2018-06-30T08:15:27.299Z,72.40
2018-06-30T08:20:22.549Z,71.90
2018-06-30T08:22:50.247Z,68.40
2018-06-30T08:25:17.952Z,71.00
2018-06-30T08:27:45.763Z,72.50
2018-06-30T08:32:40.970Z,70.60
2018-06-30T08:35:08.650Z,64.40
2018-06-30T08:37:36.342Z,61.00
2018-06-30T08:42:31.620Z,59.60
2018-06-30T08:44:59.295Z,57.80
2018-06-30T08:47:27.025Z,54.80
2018-06-30T08:49:54.688Z,58.20
2018-06-30T08:57:17.508Z,53.60
2018-06-30T09:02:12.791Z,55.90
2018-06-30T09:04:40.567Z,51.60
2018-06-30T09:07:08.256Z,57.70
2018-06-30T09:09:35.974Z,54.70
2018-06-30T09:12:03.874Z,52.40
2018-06-30T09:14:31.515Z,50.60
2018-06-30T09:21:54.347Z,52.30
2018-06-30T09:24:22.052Z,53.60
2018-06-30T09:31:44.842Z,52.70
2018-06-30T09:34:12.509Z,53.80
2018-06-30T09:36:40.244Z,54.00
2018-06-30T09:39:09.249Z,56.60
2018-06-30T09:44:04.456Z,56.90
2018-06-30T09:46:32.242Z,58.60
2018-06-30T09:48:59.898Z,56.10
2018-06-30T09:51:27.595Z,58.70
2018-06-30T09:53:55.252Z,58.40
2018-06-30T09:56:23.088Z,56.70
2018-06-30T09:58:50.899Z,57.20
2018-06-30T10:03:46.170Z,55.70
2018-06-30T10:06:13.917Z,55.70
2018-06-30T10:08:41.643Z,50.50
2018-06-30T10:11:09.362Z,52.10
2018-06-30T10:13:37.054Z,52.30
2018-06-30T10:16:04.833Z,54.10
2018-06-30T10:18:32.530Z,55.00
2018-06-30T10:21:00.332Z,53.90
2018-06-30T10:23:27.923Z,54.40
2018-06-30T10:25:55.646Z,49.90
2018-06-30T10:28:23.328Z,50.20
2018-06-30T10:33:18.569Z,50.40
2018-06-30T10:38:13.827Z,51.20
2018-06-30T10:40:41.530Z,50.50
2018-06-30T10:43:09.270Z,51.20
2018-06-30T10:45:37.020Z,51.40
2018-06-30T10:50:32.748Z,52.10
2018-06-30T10:55:28.073Z,48.00
2018-06-30T10:57:55.758Z,48.10
2018-06-30T11:00:23.601Z,49.40
2018-06-30T11:02:51.181Z,45.60
2018-06-30T11:05:19.052Z,47.50
2018-06-30T11:07:46.578Z,46.70
2018-06-30T11:10:14.330Z,46.50
2018-06-30T11:12:42.113Z,46.50
2018-06-30T11:17:37.951Z,47.30
2018-06-30T11:20:05.665Z,49.20
2018-06-30T11:22:33.360Z,50.40
2018-06-30T11:29:56.101Z,49.00
2018-06-30T11:32:23.763Z,47.80
2018-06-30T11:34:51.444Z,47.40
2018-06-30T11:37:19.063Z,46.40
2018-06-30T11:39:46.793Z,45.40
2018-06-30T11:42:14.478Z,49.20
2018-06-30T11:44:42.161Z,49.40
2018-06-30T11:47:09.857Z,50.10
2018-06-30T11:49:37.558Z,48.50
2018-06-30T11:52:05.266Z,48.30
2018-06-30T11:54:32.935Z,48.10
2018-06-30T11:57:00.714Z,47.00
2018-06-30T12:04:23.589Z,47.30
2018-06-30T12:09:27.469Z,48.00
2018-06-30T12:11:55.290Z,46.50
2018-06-30T12:14:22.922Z,47.10
2018-06-30T12:16:50.610Z,44.80
2018-06-30T12:19:18.338Z,45.10
2018-06-30T12:21:45.962Z,45.00
2018-06-30T12:24:13.585Z,44.00
2018-06-30T12:26:41.341Z,42.10
2018-06-30T12:29:09.150Z,41.80
2018-06-30T12:31:36.888Z,41.20
2018-06-30T12:34:04.650Z,42.10
2018-06-30T12:38:59.961Z,44.40
2018-06-30T12:41:27.641Z,43.80
2018-06-30T12:46:22.931Z,45.80
2018-06-30T12:48:50.605Z,46.40
2018-06-30T12:51:18.379Z,44.20
2018-06-30T12:53:46.050Z,45.70
2018-06-30T12:56:13.744Z,43.80
2018-06-30T12:58:41.426Z,42.50
2018-06-30T13:01:09.136Z,43.70
2018-06-30T13:03:36.895Z,42.50
2018-06-30T13:06:04.640Z,44.60
2018-06-30T13:08:32.360Z,44.00
2018-06-30T13:11:00.023Z,42.40
2018-06-30T13:13:27.719Z,41.50
2018-06-30T13:15:55.398Z,41.60
2018-06-30T13:20:50.629Z,43.10
2018-06-30T13:23:18.289Z,42.40
2018-06-30T13:28:13.494Z,39.70
2018-06-30T13:30:41.205Z,38.20
2018-06-30T13:33:08.871Z,38.60
2018-06-30T13:35:36.569Z,38.50
2018-06-30T13:38:04.390Z,37.00
2018-06-30T13:40:32.095Z,37.40
2018-06-30T13:42:59.814Z,36.90
2018-06-30T13:45:27.540Z,35.50
2018-06-30T13:47:55.244Z,33.80
2018-06-30T13:50:22.981Z,33.10
2018-06-30T13:52:50.630Z,33.00
2018-06-30T13:55:18.451Z,32.10
2018-06-30T13:57:46.265Z,31.90
2018-06-30T14:00:14.471Z,32.50
2018-06-30T14:02:42.822Z,32.30
2018-06-30T14:05:11.084Z,32.10
2018-06-30T14:07:38.830Z,32.40
2018-06-30T14:10:07.197Z,31.40
2018-06-30T14:12:35.010Z,31.30
2018-06-30T14:15:03.816Z,32.10
2018-06-30T14:17:31.516Z,30.90
2018-06-30T14:19:59.320Z,30.20
2018-06-30T14:22:27.055Z,30.80
2018-06-30T14:27:22.307Z,30.10
2018-06-30T14:29:50.045Z,30.00
2018-06-30T14:32:17.829Z,30.00
2018-06-30T14:37:13.028Z,31.60
2018-06-30T14:39:40.745Z,29.80
2018-06-30T14:42:08.531Z,31.70
2018-06-30T14:44:36.324Z,31.20
2018-06-30T14:47:04.040Z,31.90
2018-06-30T14:49:31.797Z,30.90
2018-06-30T14:51:59.480Z,30.60
2018-06-30T14:56:54.746Z,31.80
2018-06-30T14:59:22.453Z,30.30
2018-06-30T15:01:50.217Z,31.30
2018-06-30T15:06:45.470Z,31.90
2018-06-30T15:09:14.359Z,32.00
2018-06-30T15:11:43.346Z,31.60
2018-06-30T15:14:11.552Z,31.60
2018-06-30T15:16:39.518Z,31.40
2018-06-30T15:19:07.801Z,32.40
2018-06-30T15:21:35.466Z,32.60
2018-06-30T15:24:03.395Z,32.50
2018-06-30T15:26:31.409Z,32.20
2018-06-30T15:28:59.145Z,34.10
2018-06-30T15:31:27.074Z,32.20
2018-06-30T15:36:22.439Z,32.20
2018-06-30T15:38:50.155Z,33.10
2018-06-30T15:41:17.942Z,33.40
2018-06-30T15:43:45.656Z,33.80
2018-06-30T15:46:13.370Z,34.10
2018-06-30T15:48:41.046Z,34.40
2018-06-30T15:53:36.293Z,36.30
2018-06-30T15:56:04.462Z,36.30
2018-06-30T15:58:32.212Z,36.10
2018-06-30T16:00:59.910Z,35.80
2018-06-30T16:05:55.112Z,36.00
2018-06-30T16:08:22.844Z,36.80
2018-06-30T16:10:50.576Z,38.10
2018-06-30T16:13:18.303Z,38.30
2018-06-30T16:15:45.993Z,39.50
2018-06-30T16:18:13.697Z,38.60
2018-06-30T16:20:41.412Z,39.10
2018-06-30T16:23:09.217Z,39.10
2018-06-30T16:25:36.995Z,40.70
2018-06-30T16:30:32.560Z,39.50
2018-06-30T16:33:00.281Z,39.20
2018-06-30T16:35:27.917Z,39.60
2018-06-30T16:37:55.642Z,39.90
2018-06-30T16:42:50.976Z,41.30
2018-06-30T16:47:46.289Z,40.70
2018-06-30T16:50:14.000Z,41.50
2018-06-30T16:52:41.725Z,41.80
2018-06-30T16:55:09.419Z,41.50
2018-06-30T17:00:05.818Z,42.40
2018-06-30T17:02:33.535Z,42.80
2018-06-30T17:05:01.292Z,44.10
2018-06-30T17:07:28.997Z,43.80
2018-06-30T17:12:24.272Z,44.30
2018-06-30T17:14:51.971Z,44.40
2018-06-30T17:17:19.616Z,45.80
2018-06-30T17:24:42.681Z,45.50
2018-06-30T17:29:38.161Z,45.20
2018-06-30T17:32:05.925Z,45.50
2018-06-30T17:34:33.931Z,46.10
2018-06-30T17:37:01.654Z,46.40
2018-06-30T17:39:29.313Z,46.80
2018-06-30T17:41:57.056Z,46.80
2018-06-30T17:46:52.371Z,47.80
2018-06-30T17:49:20.049Z,47.50
2018-06-30T17:51:47.799Z,48.30
2018-06-30T17:54:15.499Z,48.80
2018-06-30T17:59:10.796Z,49.80
2018-06-30T18:04:06.157Z,51.30
2018-06-30T18:06:33.867Z,52.80
2018-06-30T18:09:01.606Z,53.20
2018-06-30T18:11:29.436Z,52.80
2018-06-30T18:13:57.231Z,52.90
2018-06-30T18:16:24.911Z,54.40
2018-06-30T18:28:42.797Z,56.30
2018-06-30T18:31:10.521Z,56.40
2018-06-30T18:36:05.828Z,56.60
2018-06-30T18:38:33.501Z,57.10
2018-06-30T18:41:02.227Z,57.20
2018-06-30T18:45:57.639Z,58.20
2018-06-30T18:48:25.299Z,58.40
2018-06-30T18:50:52.957Z,59.10
2018-06-30T18:53:20.621Z,59.70
2018-06-30T18:55:48.318Z,59.50
2018-06-30T18:58:16.048Z,59.40
2018-06-30T19:00:43.696Z,59.90
2018-06-30T19:03:13.853Z,60.50
2018-06-30T19:05:41.547Z,60.80
2018-06-30T19:08:09.592Z,61.00
2018-06-30T19:10:37.257Z,61.20
2018-06-30T19:13:05.383Z,61.80
2018-06-30T19:18:00.767Z,62.20
2018-06-30T19:22:55.983Z,62.70
2018-06-30T19:25:24.545Z,63.50
2018-06-30T19:30:19.798Z,64.00
2018-06-30T19:32:47.583Z,65.30
2018-06-30T19:35:15.321Z,65.70
2018-06-30T19:40:10.576Z,67.30
2018-06-30T19:42:38.235Z,67.70
2018-06-30T19:45:05.990Z,69.00
2018-06-30T19:50:01.208Z,70.60
2018-06-30T19:52:28.900Z,71.10
2018-06-30T19:54:56.636Z,71.30
2018-06-30T19:57:24.310Z,72.20
2018-06-30T19:59:52.034Z,72.40
2018-06-30T20:02:19.863Z,73.20
2018-06-30T20:09:42.662Z,74.00
2018-06-30T20:17:10.900Z,75.10
2018-06-30T20:19:39.461Z,75.20
2018-06-30T20:22:07.191Z,75.80
2018-06-30T20:24:36.419Z,75.80
2018-06-30T20:27:04.873Z,76.70
2018-06-30T20:29:33.297Z,75.90
2018-06-30T20:32:02.718Z,75.90
2018-06-30T20:34:31.523Z,76.50
2018-06-30T20:39:30.008Z,76.60
2018-06-30T20:41:58.128Z,76.70
2018-06-30T20:46:54.423Z,77.20
2018-06-30T20:51:51.066Z,77.30
2018-06-30T20:54:19.188Z,76.40
2018-06-30T20:56:48.692Z,73.20
2018-06-30T20:59:17.229Z,72.50
2018-06-30T21:04:14.393Z,71.80
2018-06-30T21:06:42.835Z,70.30
2018-06-30T21:09:11.492Z,67.70
2018-06-30T21:11:39.198Z,64.80
2018-06-30T21:14:07.888Z,63.50
2018-06-30T21:16:36.292Z,61.60
2018-06-30T21:19:06.504Z,60.30
2018-06-30T21:24:02.707Z,59.00
2018-06-30T21:26:30.572Z,58.70
2018-06-30T21:33:55.193Z,58.80
2018-06-30T21:36:23.326Z,59.70
2018-06-30T21:38:53.143Z,59.60
2018-06-30T21:41:21.668Z,58.60
2018-06-30T21:43:49.923Z,58.00
2018-06-30T21:46:19.591Z,59.70
2018-06-30T21:51:14.932Z,59.70
2018-06-30T21:53:42.593Z,60.90
2018-06-30T21:56:10.311Z,60.90
2018-06-30T21:58:38.003Z,61.90
2018-06-30T22:01:11.511Z,62.20
2018-06-30T22:06:06.898Z,61.20
2018-06-30T22:08:34.583Z,60.10
2018-06-30T22:11:02.489Z,60.90
2018-06-30T22:13:29.996Z,61.40
2018-06-30T22:15:57.708Z,60.90
2018-06-30T22:18:25.500Z,61.50
2018-06-30T22:20:53.132Z,60.50
2018-06-30T22:25:48.388Z,61.00
2018-06-30T22:28:16.033Z,59.90
2018-06-30T22:30:43.738Z,60.40
2018-06-30T22:35:39.092Z,60.40
2018-06-30T22:38:06.876Z,59.00
2018-06-30T22:40:34.567Z,60.10
2018-06-30T22:43:02.237Z,59.30
2018-06-30T22:45:29.962Z,60.10
2018-06-30T22:50:25.257Z,59.30
2018-06-30T22:52:52.931Z,60.80
2018-06-30T22:55:20.663Z,59.70
2018-06-30T23:02:44.747Z,58.80
2018-06-30T23:05:12.661Z,60.30
2018-06-30T23:07:40.328Z,58.80
2018-06-30T23:10:09.728Z,58.80
2018-06-30T23:12:37.551Z,57.70
2018-06-30T23:15:05.650Z,57.70
2018-06-30T23:20:00.859Z,57.60
2018-06-30T23:22:52.258Z,58.30
2018-06-30T23:25:20.007Z,57.70
2018-06-30T23:27:47.683Z,57.50
2018-06-30T23:30:15.363Z,55.60
2018-06-30T23:32:43.066Z,55.70
2018-06-30T23:40:06.113Z,54.00
2018-06-30T23:42:33.819Z,53.40
2018-06-30T23:45:01.542Z,52.20
2018-06-30T23:47:29.234Z,53.70
2018-06-30T23:49:56.908Z,52.50
2018-06-30T23:52:24.542Z,52.60
2018-06-30T23:57:19.971Z,52.30
